Time;durP1;ratioP1;P1;durP2;ratioP2;P2;SDS_P1;SDS_P2;PMS_P1;PMS_P2;Temp;Humidity;BMP_temperature;BMP_pressure;BME280_temperature;BME280_humidity;BME280_pressure;Samples;Min_cycle;Max_cycle;Signal;HPM_P1;HPM_P2
2021/03/30 00:00:15;;;;;;;3.33;3.00;;;9.70;70.00;;;;;;5105530;28;20184;-52
2021/03/30 00:02:40;;;;;;;4.22;3.30;;;9.40;69.60;;;;;;5102085;27;20300;-52
2021/03/30 00:05:07;;;;;;;4.80;3.03;;;9.60;70.00;;;;;;5109835;27;20644;-52
2021/03/30 00:07:32;;;;;;;4.28;3.20;;;9.50;70.00;;;;;;5113262;27;20199;-52
2021/03/30 00:09:58;;;;;;;5.43;3.00;;;9.60;70.20;;;;;;5102968;28;20214;-52
2021/03/30 00:12:24;;;;;;;4.20;3.17;;;9.40;70.00;;;;;;5107441;27;20538;-52
2021/03/30 00:14:49;;;;;;;3.80;3.07;;;9.50;70.80;;;;;;5098750;27;20179;-52
2021/03/30 00:17:15;;;;;;;6.60;3.40;;;9.30;71.40;;;;;;5111772;27;20195;-52
2021/03/30 00:19:41;;;;;;;3.67;3.37;;;9.30;70.90;;;;;;5106474;27;20946;-52
2021/03/30 00:22:06;;;;;;;8.40;3.30;;;9.20;71.00;;;;;;5112472;27;20183;-52
2021/03/30 00:24:32;;;;;;;3.33;2.73;;;9.20;72.30;;;;;;5100385;28;20184;-52
2021/03/30 00:26:57;;;;;;;3.17;2.70;;;9.20;72.50;;;;;;5099757;28;20306;-52
2021/03/30 00:29:23;;;;;;;4.13;3.13;;;9.10;71.90;;;;;;5107454;27;20287;-52
2021/03/30 00:31:49;;;;;;;5.30;2.70;;;9.00;71.50;;;;;;5107333;27;20605;-52
2021/03/30 00:34:14;;;;;;;4.03;2.73;;;9.20;71.60;;;;;;5106986;27;20640;-51
2021/03/30 00:36:40;;;;;;;3.47;2.80;;;9.30;71.70;;;;;;5109327;27;20232;-52
2021/03/30 00:39:06;;;;;;;4.50;2.90;;;9.20;71.20;;;;;;5106735;27;20230;-51
2021/03/30 00:41:39;;;;;;;3.47;2.37;;;9.30;71.10;;;;;;5095111;27;20248;-52
2021/03/30 00:44:12;;;;;;;3.42;2.55;;;9.20;70.80;;;;;;5100742;27;20436;-52
2021/03/30 00:46:39;;;;;;;3.03;2.67;;;9.10;71.30;;;;;;5103601;27;20226;-52
2021/03/30 00:49:05;;;;;;;4.90;3.15;;;8.90;71.80;;;;;;5094383;28;20288;-52
2021/03/30 00:51:31;;;;;;;7.10;3.00;;;9.00;72.80;;;;;;5111299;27;20635;-52
2021/03/30 00:53:58;;;;;;;4.80;3.10;;;9.00;73.20;;;;;;5113387;27;20436;-52
2021/03/30 00:56:25;;;;;;;3.90;3.15;;;8.40;72.30;;;;;;5103012;27;20187;-52
2021/03/30 00:58:55;;;;;;;2.92;2.72;;;8.80;72.70;;;;;;5109875;27;20308;-52
2021/03/30 01:01:21;;;;;;;6.68;2.95;;;8.90;73.50;;;;;;5098825;27;20183;-52
2021/03/30 01:03:47;;;;;;;4.63;2.78;;;9.10;73.50;;;;;;5106652;28;20565;-52
2021/03/30 01:06:13;;;;;;;5.60;2.80;;;8.90;72.90;;;;;;5106983;27;20210;-52
2021/03/30 01:09:07;;;;;;;4.00;2.50;;;9.00;72.20;;;;;;5103423;27;21559;-52
2021/03/30 01:11:55;;;;;;;2.97;2.67;;;8.90;72.10;;;;;;5102395;27;20262;-52
2021/03/30 01:15:02;;;;;;;2.72;2.40;;;8.80;72.10;;;;;;5103171;27;20294;-52
2021/03/30 01:18:06;;;;;;;2.90;2.60;;;8.50;72.10;;;;;;5080567;27;20183;-52
2021/03/30 01:20:57;;;;;;;5.05;2.50;;;8.40;72.50;;;;;;5069402;27;20190;-52
2021/03/30 01:24:14;;;;;;;3.38;3.08;;;8.60;74.30;;;;;;5102360;27;20724;-52
2021/03/30 01:26:44;;;;;;;4.75;3.25;;;8.40;74.60;;;;;;5101248;27;20229;-52
2021/03/30 01:29:38;;;;;;;3.83;2.72;;;8.40;74.90;;;;;;5101973;27;20255;-52
2021/03/30 01:32:32;;;;;;;2.58;2.38;;;8.60;74.70;;;;;;5102131;27;20549;-52
2021/03/30 01:35:00;;;;;;;3.78;2.42;;;8.40;74.60;;;;;;5110068;27;20183;-52
2021/03/30 01:37:26;;;;;;;3.40;2.50;;;8.30;74.20;;;;;;5106206;27;20184;-52
2021/03/30 01:39:59;;;;;;;4.95;2.90;;;8.30;75.50;;;;;;5103290;27;20648;-52
2021/03/30 01:42:30;;;;;;;4.57;2.70;;;8.30;76.30;;;;;;5104161;27;20473;-52
2021/03/30 01:44:57;;;;;;;3.50;2.72;;;7.90;76.80;;;;;;5101638;27;20190;-52
2021/03/30 01:47:24;;;;;;;4.50;2.70;;;8.00;77.60;;;;;;5109107;27;20198;-52
2021/03/30 01:49:50;;;;;;;2.92;2.63;;;8.30;77.80;;;;;;5103342;27;20191;-52
2021/03/30 01:52:18;;;;;;;3.60;2.90;;;8.20;77.70;;;;;;5098992;28;20228;-52
2021/03/30 01:54:47;;;;;;;3.45;3.13;;;7.90;77.80;;;;;;5105501;27;20231;-52
2021/03/30 01:57:14;;;;;;;3.13;2.80;;;8.00;78.30;;;;;;5105850;27;20179;-51
2021/03/30 01:59:42;;;;;;;3.28;2.70;;;8.10;79.00;;;;;;5104304;28;20692;-52
2021/03/30 02:02:08;;;;;;;2.85;2.53;;;8.10;79.50;;;;;;5100563;28;20312;-52
2021/03/30 02:04:35;;;;;;;4.28;2.78;;;7.80;79.40;;;;;;5104543;27;20182;-52
2021/03/30 02:07:02;;;;;;;3.03;2.70;;;7.90;80.40;;;;;;5099857;28;20211;-51
2021/03/30 02:09:34;;;;;;;3.17;2.80;;;7.80;80.50;;;;;;5106810;27;20242;-52
2021/03/30 02:12:07;;;;;;;3.20;2.40;;;7.70;80.30;;;;;;5109567;27;20175;-51
2021/03/30 02:14:34;;;;;;;7.93;4.10;;;7.60;80.30;;;;;;5107649;27;20232;-53
2021/03/30 02:17:02;;;;;;;4.50;2.80;;;7.50;80.50;;;;;;5098104;28;20190;-52
2021/03/30 02:19:43;;;;;;;3.92;2.80;;;7.60;81.80;;;;;;5103257;27;20202;-52
2021/03/30 02:22:21;;;;;;;3.75;2.80;;;7.60;82.30;;;;;;5100418;27;20215;-52
2021/03/30 02:24:47;;;;;;;3.20;2.90;;;7.50;82.90;;;;;;5100618;27;20602;-53
2021/03/30 02:27:14;;;;;;;4.38;2.83;;;7.70;83.60;;;;;;5103731;27;20668;-52
2021/03/30 02:29:43;;;;;;;3.38;2.40;;;7.70;82.70;;;;;;5102211;27;20203;-53
2021/03/30 02:32:12;;;;;;;4.20;3.20;;;7.70;82.10;;;;;;5100234;27;20270;-52
2021/03/30 02:34:39;;;;;;;4.22;2.95;;;7.50;81.90;;;;;;5102590;27;20179;-52
2021/03/30 02:37:06;;;;;;;3.15;2.85;;;7.60;82.10;;;;;;5102198;27;20187;-52
2021/03/30 02:39:32;;;;;;;3.63;2.95;;;7.50;82.40;;;;;;5102162;27;20211;-52
2021/03/30 02:41:59;;;;;;;4.35;2.72;;;7.50;82.80;;;;;;5105552;27;20556;-52
2021/03/30 02:44:26;;;;;;;3.22;2.92;;;7.60;82.00;;;;;;5097560;27;20278;-52
2021/03/30 02:46:55;;;;;;;2.50;2.30;;;7.10;82.30;;;;;;5096878;28;20203;-52
2021/03/30 02:49:23;;;;;;;3.38;2.70;;;7.60;82.50;;;;;;5101769;27;20203;-51
2021/03/30 02:51:51;;;;;;;6.57;3.17;;;7.60;82.30;;;;;;5095096;28;20645;-52
2021/03/30 02:54:17;;;;;;;5.28;2.90;;;7.60;82.90;;;;;;5101323;27;20183;-52
2021/03/30 02:56:45;;;;;;;3.38;2.80;;;7.70;82.50;;;;;;5100280;27;20277;-52
2021/03/30 02:59:12;;;;;;;3.50;2.60;;;7.50;82.80;;;;;;5110437;27;20203;-52
2021/03/30 03:01:38;;;;;;;3.05;2.65;;;7.50;82.70;;;;;;5102827;28;20186;-52
2021/03/30 03:04:04;;;;;;;2.70;2.50;;;7.30;82.40;;;;;;5095086;28;20187;-52
2021/03/30 03:06:31;;;;;;;3.40;2.80;;;7.50;83.10;;;;;;5093033;27;20202;-52
2021/03/30 03:08:59;;;;;;;3.42;3.13;;;7.50;83.80;;;;;;5105400;28;20203;-51
2021/03/30 03:11:25;;;;;;;5.47;2.75;;;7.30;83.90;;;;;;5101314;28;20231;-52
2021/03/30 03:13:52;;;;;;;5.38;2.85;;;7.40;84.80;;;;;;5104711;28;20179;-52
2021/03/30 03:16:20;;;;;;;7.05;2.95;;;7.10;85.80;;;;;;5125181;27;20567;-52
2021/03/30 03:18:47;;;;;;;6.07;3.15;;;7.20;86.00;;;;;;5098204;28;20664;-52
2021/03/30 03:21:14;;;;;;;5.45;3.35;;;7.00;86.20;;;;;;5100339;28;20558;-51
2021/03/30 03:23:41;;;;;;;4.88;3.00;;;7.00;86.60;;;;;;5117588;28;20194;-52
2021/03/30 03:26:08;;;;;;;3.47;2.78;;;7.20;87.70;;;;;;5101366;28;20636;-52
2021/03/30 03:28:41;;;;;;;5.32;2.70;;;7.10;86.20;;;;;;5102612;28;20635;-52
2021/03/30 03:31:08;;;;;;;3.92;2.70;;;6.90;85.40;;;;;;5100735;28;20585;-52
2021/03/30 03:33:34;;;;;;;2.67;2.45;;;7.20;85.60;;;;;;5103902;28;20268;-52
2021/03/30 03:36:11;;;;;;;4.00;3.13;;;7.30;85.70;;;;;;5092325;28;20179;-51
2021/03/30 03:38:39;;;;;;;4.65;3.47;;;7.10;86.60;;;;;;5103248;28;20256;-52
2021/03/30 03:41:15;;;;;;;6.15;2.50;;;6.60;87.40;;;;;;5103362;28;20196;-52
2021/03/30 03:43:44;;;;;;;3.80;3.10;;;7.00;87.10;;;;;;5126127;28;20182;-52
2021/03/30 03:46:14;;;;;;;4.05;2.72;;;7.00;87.40;;;;;;5099265;28;20647;-52
2021/03/30 03:48:40;;;;;;;3.72;3.35;;;6.90;86.50;;;;;;5095305;28;20210;-52
2021/03/30 03:51:06;;;;;;;4.80;3.80;;;6.90;87.20;;;;;;5094753;28;20183;-52
2021/03/30 03:53:36;;;;;;;6.03;3.10;;;6.90;87.10;;;;;;5102930;28;20270;-52
2021/03/30 03:56:02;;;;;;;6.75;3.60;;;7.00;87.40;;;;;;5101540;28;20236;-52
2021/03/30 03:58:33;;;;;;;6.10;3.60;;;7.20;87.90;;;;;;5103288;28;20202;-52
2021/03/30 04:00:59;;;;;;;4.43;3.40;;;7.20;89.20;;;;;;5110846;28;20213;-52
2021/03/30 04:03:32;;;;;;;3.80;2.95;;;7.10;88.20;;;;;;5104302;28;20186;-52
2021/03/30 04:06:21;;;;;;;3.60;3.30;;;6.90;87.20;;;;;;5098086;28;20257;-53
2021/03/30 04:08:56;;;;;;;5.80;3.00;;;7.10;87.40;;;;;;5101601;28;20668;-52
2021/03/30 04:11:23;;;;;;;4.22;3.17;;;7.20;87.00;;;;;;5100165;28;20195;-53
2021/03/30 04:13:50;;;;;;;6.95;3.20;;;7.30;87.90;;;;;;5123163;28;20564;-53
2021/03/30 04:16:17;;;;;;;6.90;3.60;;;7.30;87.50;;;;;;5104171;28;20222;-52
2021/03/30 04:18:43;;;;;;;7.63;3.88;;;7.20;87.50;;;;;;5094130;28;20299;-52
2021/03/30 04:21:14;;;;;;;3.50;3.20;;;7.10;87.20;;;;;;5129600;28;20548;-52
2021/03/30 04:23:47;;;;;;;3.88;3.28;;;7.10;88.10;;;;;;5097897;28;20565;-52
2021/03/30 04:26:13;;;;;;;4.00;3.10;;;7.30;88.80;;;;;;5111036;27;20211;-53
2021/03/30 04:28:39;;;;;;;5.70;3.97;;;7.20;88.50;;;;;;5104865;27;20202;-52
2021/03/30 04:31:06;;;;;;;5.53;3.58;;;7.30;88.50;;;;;;5113102;27;20179;-52
2021/03/30 04:33:32;;;;;;;4.57;3.28;;;7.10;89.00;;;;;;5101494;27;20260;-52
2021/03/30 04:35:57;;;;;;;4.30;3.65;;;7.10;87.50;;;;;;5101393;28;20184;-52
2021/03/30 04:38:23;;;;;;;7.23;3.50;;;7.40;87.60;;;;;;5102034;28;20673;-52
2021/03/30 04:40:53;;;;;;;4.67;3.63;;;7.40;87.40;;;;;;5103490;27;20186;-52
2021/03/30 04:43:23;;;;;;;5.68;3.55;;;7.20;87.40;;;;;;5096572;27;20716;-52
2021/03/30 04:45:49;;;;;;;4.00;3.15;;;7.20;88.00;;;;;;5110527;27;20619;-53
2021/03/30 04:48:14;;;;;;;4.43;3.77;;;7.10;87.70;;;;;;5103952;27;20242;-52
2021/03/30 04:50:44;;;;;;;5.10;3.17;;;7.10;88.60;;;;;;5093944;28;20843;-52
2021/03/30 04:53:11;;;;;;;9.50;4.32;;;6.90;89.40;;;;;;5101535;27;20695;-53
2021/03/30 04:55:38;;;;;;;5.07;3.90;;;6.70;90.20;;;;;;5106153;28;20179;-52
2021/03/30 04:58:04;;;;;;;6.30;3.38;;;7.00;90.60;;;;;;5104158;27;20271;-53
2021/03/30 05:00:30;;;;;;;3.63;3.33;;;7.00;90.40;;;;;;5107644;27;20669;-53
2021/03/30 05:02:55;;;;;;;7.00;4.13;;;6.80;90.00;;;;;;5104410;27;20191;-53
2021/03/30 05:05:21;;;;;;;5.40;3.47;;;6.90;90.10;;;;;;5101263;27;20640;-53
2021/03/30 05:07:47;;;;;;;4.80;3.33;;;7.20;89.90;;;;;;5125627;27;20206;-53
2021/03/30 05:10:13;;;;;;;4.00;3.20;;;6.90;88.80;;;;;;5105503;27;20447;-52
2021/03/30 05:12:39;;;;;;;4.20;3.63;;;7.10;89.50;;;;;;5102832;27;20183;-52
2021/03/30 05:15:06;;;;;;;5.00;3.90;;;6.90;89.60;;;;;;5103096;27;20448;-52
2021/03/30 05:17:33;;;;;;;11.75;4.22;;;6.90;90.00;;;;;;5101552;27;20325;-53
2021/03/30 05:19:59;;;;;;;3.75;3.35;;;7.10;90.00;;;;;;5126894;27;20650;-53
2021/03/30 05:22:24;;;;;;;7.80;3.90;;;6.80;90.10;;;;;;5102386;27;20226;-53
2021/03/30 05:24:50;;;;;;;4.50;3.97;;;6.80;90.50;;;;;;5103299;27;20186;-53
2021/03/30 05:27:16;;;;;;;5.70;3.60;;;7.00;90.60;;;;;;5097686;27;20245;-54
2021/03/30 05:29:44;;;;;;;9.83;3.87;;;6.80;90.30;;;;;;5106500;27;20206;-54
2021/03/30 05:32:14;;;;;;;6.07;3.63;;;6.80;90.10;;;;;;5106345;27;20649;-54
2021/03/30 05:34:41;;;;;;;5.45;3.85;;;6.90;90.50;;;;;;5096800;27;20182;-55
2021/03/30 05:37:07;;;;;;;6.82;4.70;;;7.00;90.30;;;;;;5123423;27;21452;-54
2021/03/30 05:39:32;;;;;;;5.60;3.60;;;6.80;90.40;;;;;;5106631;27;20217;-52
2021/03/30 05:41:59;;;;;;;4.87;4.37;;;7.00;90.50;;;;;;5125448;27;20448;-54
2021/03/30 05:44:26;;;;;;;10.90;4.40;;;7.00;90.50;;;;;;5125953;27;20839;-52
2021/03/30 05:47:05;;;;;;;7.05;4.35;;;7.00;90.10;;;;;;5108343;27;20199;-52
2021/03/30 05:49:31;;;;;;;10.48;4.30;;;7.10;90.40;;;;;;5105679;27;20683;-53
2021/03/30 05:51:58;;;;;;;4.70;4.20;;;6.70;90.40;;;;;;5119914;27;20179;-53
2021/03/30 05:54:25;;;;;;;7.90;5.07;;;7.20;90.70;;;;;;5102035;27;20532;-52
2021/03/30 05:56:54;;;;;;;9.07;4.85;;;7.00;90.70;;;;;;5104609;27;20664;-53
2021/03/30 05:59:21;;;;;;;6.57;4.40;;;7.10;91.00;;;;;;5099955;27;20210;-52
2021/03/30 06:01:50;;;;;;;6.38;4.63;;;7.10;91.00;;;;;;5122431;27;20637;-52
2021/03/30 06:04:18;;;;;;;7.10;4.45;;;7.20;90.90;;;;;;5102134;27;20671;-54
2021/03/30 06:06:43;;;;;;;8.00;4.95;;;7.40;90.90;;;;;;5103084;27;20663;-54
2021/03/30 06:09:09;;;;;;;7.80;4.47;;;7.40;90.80;;;;;;5097049;27;20210;-54
2021/03/30 06:11:35;;;;;;;7.90;5.43;;;7.30;90.90;;;;;;5100573;27;20179;-54
2021/03/30 06:14:01;;;;;;;10.40;6.23;;;7.70;90.80;;;;;;5101482;27;20187;-55
2021/03/30 06:16:39;;;;;;;11.90;5.60;;;7.10;90.30;;;;;;5104510;27;20198;-54
2021/03/30 06:19:16;;;;;;;11.95;5.32;;;7.60;90.40;;;;;;5102927;27;20198;-54
2021/03/30 06:22:03;;;;;;;10.68;5.90;;;7.90;90.20;;;;;;5124628;27;20750;-55
2021/03/30 06:24:31;;;;;;;9.25;5.80;;;8.20;90.00;;;;;;5106200;27;20194;-51
2021/03/30 06:27:18;;;;;;;8.30;4.90;;;8.50;90.00;;;;;;5100980;27;20230;-51
2021/03/30 06:29:44;;;;;;;6.35;5.20;;;8.50;89.50;;;;;;5121467;27;20199;-52
2021/03/30 06:32:15;;;;;;;10.40;5.50;;;8.60;89.60;;;;;;5102796;27;20174;-53
2021/03/30 06:34:45;;;;;;;14.05;7.57;;;8.60;88.80;;;;;;5097527;27;20649;-51
2021/03/30 06:37:30;;;;;;;7.63;5.63;;;9.00;88.10;;;;;;5101343;27;20179;-51
2021/03/30 06:39:58;;;;;;;7.47;5.45;;;9.10;86.80;;;;;;5103725;27;20332;-50
2021/03/30 06:42:32;;;;;;;7.43;5.35;;;9.70;85.60;;;;;;5103370;27;20612;-51
2021/03/30 06:44:58;;;;;;;9.32;5.40;;;9.90;84.50;;;;;;5109582;27;20183;-51
2021/03/30 06:47:24;;;;;;;8.57;5.90;;;10.50;82.20;;;;;;5102949;28;20208;-51
2021/03/30 06:49:54;;;;;;;10.35;5.90;;;10.80;81.00;;;;;;5098616;27;20466;-51
2021/03/30 06:52:28;;;;;;;9.60;5.65;;;11.10;79.50;;;;;;5099063;28;20187;-51
2021/03/30 06:54:56;;;;;;;8.70;5.00;;;11.60;78.40;;;;;;5117460;27;20832;-52
2021/03/30 06:57:46;;;;;;;6.40;5.20;;;12.50;75.20;;;;;;5105889;28;20659;-50
2021/03/30 07:00:18;;;;;;;9.38;5.25;;;13.20;71.70;;;;;;5102414;27;20188;-54
2021/03/30 07:02:52;;;;;;;6.90;5.50;;;14.20;67.00;;;;;;5104652;27;20178;-53
2021/03/30 07:05:23;;;;;;;6.93;4.50;;;15.10;64.20;;;;;;5100682;27;20189;-52
2021/03/30 07:07:53;;;;;;;7.35;4.82;;;15.70;61.40;;;;;;5101164;27;20209;-54
2021/03/30 07:10:19;;;;;;;6.72;5.88;;;15.40;59.50;;;;;;5100141;28;20168;-53
2021/03/30 07:12:50;;;;;;;7.17;5.27;;;16.30;58.80;;;;;;5094452;28;20254;-50
2021/03/30 07:15:18;;;;;;;10.27;5.60;;;16.60;57.90;;;;;;5104625;28;20449;-51
2021/03/30 07:17:50;;;;;;;15.10;5.65;;;16.90;56.00;;;;;;5101679;28;20741;-52
2021/03/30 07:20:17;;;;;;;6.57;5.68;;;16.50;56.50;;;;;;5117195;27;20191;-52
2021/03/30 07:22:46;;;;;;;6.57;5.15;;;15.80;57.60;;;;;;5093996;28;20175;-51
2021/03/30 07:25:16;;;;;;;11.50;6.28;;;15.90;59.20;;;;;;5097542;28;20183;-52
2021/03/30 07:27:47;;;;;;;8.35;6.00;;;17.10;58.60;;;;;;5100157;28;20694;-50
2021/03/30 07:30:14;;;;;;;8.77;7.03;;;18.00;54.80;;;;;;5104536;28;20184;-51
2021/03/30 07:33:28;;;;;;;7.28;6.53;;;18.20;54.10;;;;;;5116497;28;20190;-51
2021/03/30 07:35:57;;;;;;;7.83;6.57;;;20.20;51.50;;;;;;5102028;28;20199;-51
2021/03/30 07:38:29;;;;;;;9.67;6.10;;;21.10;48.10;;;;;;5094155;28;20452;-51
2021/03/30 07:40:55;;;;;;;11.57;6.47;;;22.40;46.70;;;;;;5123739;28;20541;-51
2021/03/30 07:43:23;;;;;;;8.90;7.37;;;23.90;45.10;;;;;;5103812;28;20468;-51
2021/03/30 07:45:51;;;;;;;8.37;5.73;;;25.40;42.30;;;;;;5097685;28;20640;-52
2021/03/30 07:48:18;;;;;;;11.13;7.20;;;25.40;40.50;;;;;;5101070;28;20831;-52
2021/03/30 07:51:04;;;;;;;10.40;6.80;;;26.90;39.70;;;;;;5108755;28;20440;-53
2021/03/30 07:53:54;;;;;;;11.40;7.07;;;28.60;36.20;;;;;;5106882;28;20795;-52
2021/03/30 07:56:25;;;;;;;9.27;7.03;;;28.30;35.00;;;;;;5097800;28;20504;-51
2021/03/30 07:58:53;;;;;;;12.80;8.97;;;26.40;35.10;;;;;;5093243;28;20547;-52
2021/03/30 08:01:20;;;;;;;9.43;7.13;;;25.60;37.50;;;;;;5116512;27;20441;-52
2021/03/30 08:03:48;;;;;;;10.07;6.63;;;27.80;35.80;;;;;;5113156;27;20422;-52
2021/03/30 08:06:18;;;;;;;7.30;6.67;;;29.30;33.30;;;;;;5112328;27;20461;-52
2021/03/30 08:09:06;;;;;;;9.27;7.23;;;29.70;32.50;;;;;;5109665;27;20983;-52
2021/03/30 08:14:08;;;;;;;13.03;7.07;;;30.40;31.20;;;;;;5128832;27;20439;-52
2021/03/30 08:16:40;;;;;;;8.60;7.30;;;31.00;30.30;;;;;;5109247;27;20453;-52
2021/03/30 08:19:12;;;;;;;8.17;7.37;;;31.30;29.90;;;;;;5105981;27;20451;-52
2021/03/30 08:21:58;;;;;;;8.40;7.27;;;31.40;29.90;;;;;;5107422;27;21031;-53
2021/03/30 08:24:28;;;;;;;7.70;7.10;;;31.80;29.50;;;;;;5100363;27;20436;-53
2021/03/30 08:26:54;;;;;;;12.63;6.77;;;32.00;29.20;;;;;;5099611;27;20492;-52
2021/03/30 08:29:36;;;;;;;9.83;7.70;;;31.70;29.10;;;;;;5109875;27;20962;-53
2021/03/30 08:32:03;;;;;;;8.53;6.90;;;31.70;29.00;;;;;;5096537;28;20502;-52
2021/03/30 08:34:42;;;;;;;9.13;7.63;;;31.80;29.20;;;;;;5101188;27;20524;-51
2021/03/30 08:37:15;;;;;;;9.20;8.30;;;31.80;28.60;;;;;;5096967;28;20964;-53
2021/03/30 08:39:42;;;;;;;7.87;6.90;;;30.70;29.80;;;;;;5107948;27;20491;-51
2021/03/30 08:42:13;;;;;;;8.80;8.00;;;31.30;29.50;;;;;;5104386;27;20790;-51
2021/03/30 08:44:40;;;;;;;10.10;7.70;;;31.80;29.20;;;;;;5097513;27;20441;-51
2021/03/30 08:47:08;;;;;;;8.07;7.27;;;31.90;28.80;;;;;;5101663;27;21011;-51
2021/03/30 08:49:42;;;;;;;8.30;7.47;;;32.10;28.70;;;;;;5094139;28;20532;-53
2021/03/30 08:52:09;;;;;;;10.57;8.13;;;31.50;29.00;;;;;;5112266;27;20472;-52
2021/03/30 08:54:37;;;;;;;13.20;9.00;;;31.50;29.10;;;;;;5111906;27;20427;-52
2021/03/30 08:57:07;;;;;;;8.10;7.40;;;30.90;29.00;;;;;;5101583;27;20437;-52
2021/03/30 08:59:34;;;;;;;11.03;7.90;;;30.50;29.60;;;;;;5109321;27;20461;-52
2021/03/30 09:02:03;;;;;;;9.53;7.40;;;30.00;30.30;;;;;;5103009;28;20976;-52
2021/03/30 09:04:42;;;;;;;9.57;7.70;;;29.80;30.90;;;;;;5102394;27;20429;-52
2021/03/30 09:07:09;;;;;;;8.73;7.37;;;29.10;31.50;;;;;;5105506;27;20840;-51
2021/03/30 09:09:35;;;;;;;8.10;7.20;;;26.00;34.20;;;;;;5098161;27;20932;-52
2021/03/30 09:12:18;;;;;;;11.43;8.10;;;25.20;36.90;;;;;;5095145;27;20952;-51
2021/03/30 09:14:45;;;;;;;9.13;6.70;;;24.20;37.50;;;;;;5102500;27;20447;-52
2021/03/30 09:17:12;;;;;;;7.80;6.90;;;22.70;39.50;;;;;;5127557;27;20784;-54
2021/03/30 09:19:46;;;;;;;9.10;6.60;;;22.50;41.40;;;;;;5101336;28;20560;-51
2021/03/30 09:22:29;;;;;;;14.50;7.50;;;23.20;40.70;;;;;;5099411;28;20950;-52
2021/03/30 09:27:38;;;;;;;9.80;7.50;;;24.20;39.10;;;;;;5119127;27;20558;-54
2021/03/30 09:30:11;;;;;;;8.77;7.17;;;24.80;38.60;;;;;;5102499;28;21037;-52
2021/03/30 09:32:39;;;;;;;11.20;6.90;;;25.50;38.20;;;;;;5097311;27;20448;-52
2021/03/30 09:35:28;;;;;;;10.40;8.07;;;26.60;36.90;;;;;;5101572;27;20821;-52
2021/03/30 09:38:00;;;;;;;8.10;7.27;;;26.70;36.10;;;;;;5097433;27;20952;-51
2021/03/30 09:40:36;;;;;;;8.40;7.10;;;25.60;37.00;;;;;;5100887;27;20783;-53
2021/03/30 09:43:16;;;;;;;11.70;7.30;;;26.00;36.90;;;;;;5105333;27;20711;-52
2021/03/30 09:45:43;;;;;;;9.70;6.97;;;26.10;36.90;;;;;;5107514;27;20508;-51
2021/03/30 09:48:15;;;;;;;10.60;6.80;;;24.80;38.80;;;;;;5098254;28;20542;-52
2021/03/30 09:50:45;;;;;;;7.27;6.50;;;25.60;37.80;;;;;;5095690;27;20431;-52
2021/03/30 09:53:11;;;;;;;8.87;6.53;;;25.40;37.30;;;;;;5107652;27;21076;-52
2021/03/30 09:55:38;;;;;;;10.50;6.30;;;25.50;38.30;;;;;;5101807;27;20462;-52
2021/03/30 09:58:15;;;;;;;6.90;6.40;;;26.90;36.50;;;;;;5100319;27;20545;-52
2021/03/30 10:00:47;;;;;;;9.10;6.50;;;26.10;36.00;;;;;;5102474;27;20440;-51
2021/03/30 10:03:14;;;;;;;9.70;6.43;;;26.20;37.00;;;;;;5105939;27;20524;-53
2021/03/30 10:05:43;;;;;;;7.90;6.23;;;27.50;36.10;;;;;;5102287;27;20448;-52
2021/03/30 10:08:26;;;;;;;7.90;6.70;;;28.50;34.20;;;;;;5101028;27;20482;-52
2021/03/30 10:10:54;;;;;;;10.10;6.93;;;28.50;33.80;;;;;;5103333;27;20419;-51
2021/03/30 10:13:27;;;;;;;10.37;7.03;;;28.50;34.00;;;;;;5102440;27;20448;-51
2021/03/30 10:15:58;;;;;;;10.33;6.90;;;28.70;33.90;;;;;;5097180;27;20989;-52
2021/03/30 10:18:27;;;;;;;14.33;11.07;;;27.90;34.30;;;;;;5102352;27;20453;-51
2021/03/30 10:21:04;;;;;;;12.30;7.73;;;26.90;36.00;;;;;;5108105;27;20433;-52
2021/03/30 10:23:34;;;;;;;9.83;7.10;;;27.50;35.00;;;;;;5102491;27;20425;-51
2021/03/30 10:26:14;;;;;;;10.77;7.13;;;27.30;35.30;;;;;;5109652;27;20789;-51
2021/03/30 10:28:40;;;;;;;9.23;7.20;;;26.70;35.20;;;;;;5103141;27;20467;-52
2021/03/30 10:33:40;;;;;;;9.40;6.57;;;27.10;34.70;;;;;;5121722;27;20549;-51
2021/03/30 10:36:09;;;;;;;12.03;6.43;;;27.60;34.10;;;;;;5115805;27;20432;-51
2021/03/30 10:38:38;;;;;;;8.77;6.33;;;26.90;34.10;;;;;;5103869;28;20463;-52
2021/03/30 10:41:09;;;;;;;7.43;6.57;;;26.50;35.10;;;;;;5098861;27;20430;-51
2021/03/30 10:43:34;;;;;;;8.10;6.73;;;26.50;35.00;;;;;;5096483;27;20448;-52
2021/03/30 10:46:00;;;;;;;6.83;6.13;;;25.90;35.90;;;;;;5105925;27;20440;-51
2021/03/30 10:48:26;;;;;;;8.17;5.97;;;26.10;34.90;;;;;;5102776;28;20295;-51
2021/03/30 10:50:53;;;;;;;8.80;6.30;;;26.40;35.10;;;;;;5103504;27;20187;-51
2021/03/30 10:53:21;;;;;;;6.17;5.50;;;26.60;33.90;;;;;;5103961;27;20187;-52
2021/03/30 10:55:47;;;;;;;6.33;5.70;;;26.70;33.80;;;;;;5106132;27;20771;-51
2021/03/30 10:58:15;;;;;;;6.77;5.47;;;26.90;33.20;;;;;;5105924;27;20859;-52
2021/03/30 11:00:42;;;;;;;8.27;5.17;;;27.50;32.60;;;;;;5099713;27;20441;-52
2021/03/30 11:03:07;;;;;;;8.40;6.10;;;27.50;32.70;;;;;;5097003;28;20438;-52
2021/03/30 11:05:36;;;;;;;7.90;6.57;;;27.40;33.00;;;;;;5096913;27;20445;-52
2021/03/30 11:08:03;;;;;;;8.37;5.80;;;27.60;31.80;;;;;;5103502;28;20250;-52
2021/03/30 11:10:31;;;;;;;6.47;5.87;;;27.90;31.40;;;;;;5101828;27;20858;-52
2021/03/30 11:12:57;;;;;;;7.00;5.80;;;28.00;31.20;;;;;;5094823;28;20445;-52
2021/03/30 11:15:23;;;;;;;5.50;5.00;;;27.80;30.60;;;;;;5099598;27;20448;-52
2021/03/30 11:17:48;;;;;;;6.00;5.00;;;27.60;30.80;;;;;;5097830;28;20692;-52
2021/03/30 11:20:15;;;;;;;5.37;4.83;;;27.20;30.90;;;;;;5108584;27;20179;-51
2021/03/30 11:22:44;;;;;;;5.80;4.63;;;27.00;30.10;;;;;;5099853;28;20182;-51
2021/03/30 11:25:11;;;;;;;7.57;4.80;;;27.10;30.10;;;;;;5102284;28;20485;-51
2021/03/30 11:27:38;;;;;;;5.40;4.90;;;27.20;30.50;;;;;;5101232;28;20470;-53
2021/03/30 11:30:12;;;;;;;5.53;5.00;;;27.30;30.40;;;;;;5101413;28;20457;-53
2021/03/30 11:35:29;;;;;;;6.10;4.33;;;27.40;29.70;;;;;;5122573;27;20961;-51
2021/03/30 11:38:05;;;;;;;5.17;4.50;;;27.10;29.70;;;;;;5125897;27;20433;-51
2021/03/30 11:40:30;;;;;;;5.20;4.70;;;27.00;30.00;;;;;;5102404;27;20435;-52
2021/03/30 11:42:56;;;;;;;5.40;4.30;;;27.00;29.60;;;;;;5103101;27;20440;-53
2021/03/30 11:45:22;;;;;;;6.13;5.23;;;27.10;30.00;;;;;;5101011;27;20183;-54
2021/03/30 11:47:47;;;;;;;8.13;5.43;;;27.20;30.00;;;;;;5102310;27;20593;-51
2021/03/30 11:50:13;;;;;;;5.70;4.40;;;27.20;30.00;;;;;;5105835;27;20179;-52
2021/03/30 11:52:39;;;;;;;5.50;4.13;;;26.80;30.00;;;;;;5098921;27;20695;-53
2021/03/30 11:55:06;;;;;;;4.47;4.07;;;26.80;29.50;;;;;;5106770;27;20239;-54
2021/03/30 11:57:31;;;;;;;4.27;3.83;;;26.90;29.30;;;;;;5102309;27;20219;-53
2021/03/30 11:59:58;;;;;;;5.13;4.30;;;27.20;29.40;;;;;;5101324;27;20558;-54
2021/03/30 12:02:23;;;;;;;5.70;5.20;;;27.30;29.60;;;;;;5100958;27;20782;-55
2021/03/30 12:04:49;;;;;;;4.57;4.13;;;27.50;29.90;;;;;;5104413;27;20520;-53
2021/03/30 12:07:14;;;;;;;5.83;3.83;;;27.30;29.50;;;;;;5104115;27;20211;-55
2021/03/30 12:09:40;;;;;;;6.13;4.10;;;27.20;29.30;;;;;;5097548;28;20673;-54
2021/03/30 12:12:06;;;;;;;4.93;4.40;;;26.70;29.50;;;;;;5105373;27;20237;-54
2021/03/30 12:14:33;;;;;;;4.40;4.00;;;26.20;29.50;;;;;;5105111;27;20922;-51
2021/03/30 12:16:59;;;;;;;8.43;4.33;;;26.30;29.50;;;;;;5103235;27;20483;-54
2021/03/30 12:19:24;;;;;;;4.30;3.80;;;26.10;29.20;;;;;;5105683;27;20490;-53
2021/03/30 12:21:52;;;;;;;4.00;3.30;;;25.90;29.10;;;;;;5104066;27;20312;-57
2021/03/30 12:24:18;;;;;;;5.90;4.80;;;25.70;30.00;;;;;;5104611;27;20184;-53
2021/03/30 12:26:43;;;;;;;4.57;4.17;;;25.60;30.40;;;;;;5101852;27;20563;-54
2021/03/30 12:29:09;;;;;;;5.70;4.40;;;25.50;30.50;;;;;;5107906;27;20310;-54
2021/03/30 12:31:35;;;;;;;21.40;10.10;;;25.50;30.70;;;;;;5099780;27;20180;-53
2021/03/30 12:34:01;;;;;;;7.20;4.60;;;25.60;32.80;;;;;;5102712;27;20188;-53
2021/03/30 12:36:27;;;;;;;8.33;5.00;;;25.50;30.70;;;;;;5106159;27;20437;-53
2021/03/30 12:38:53;;;;;;;8.93;4.30;;;25.60;30.60;;;;;;5101526;27;20456;-54
2021/03/30 12:41:19;;;;;;;4.70;3.93;;;25.30;30.60;;;;;;5105888;27;20441;-53
2021/03/30 12:43:44;;;;;;;4.43;3.40;;;25.20;29.90;;;;;;5107919;27;20437;-53
2021/03/30 12:46:11;;;;;;;4.37;3.27;;;25.20;28.40;;;;;;5099464;28;20348;-53
2021/03/30 12:48:37;;;;;;;3.60;3.30;;;25.30;27.50;;;;;;5103232;27;20230;-53
2021/03/30 12:51:04;;;;;;;3.50;3.20;;;25.40;26.90;;;;;;5098218;27;20918;-52
2021/03/30 12:53:30;;;;;;;3.63;3.30;;;25.50;26.90;;;;;;5098501;27;20441;-55
2021/03/30 12:55:56;;;;;;;4.03;3.20;;;25.50;26.90;;;;;;5100873;27;20436;-52
2021/03/30 12:58:22;;;;;;;4.27;3.30;;;25.60;27.10;;;;;;5103406;27;20469;-53
2021/03/30 13:00:47;;;;;;;4.70;3.90;;;25.60;27.30;;;;;;5098632;27;20195;-53
2021/03/30 13:03:13;;;;;;;4.53;3.93;;;25.50;27.90;;;;;;5105602;27;20194;-53
2021/03/30 13:05:39;;;;;;;4.47;4.07;;;25.60;28.10;;;;;;5107500;27;20301;-52
2021/03/30 13:08:04;;;;;;;3.93;3.40;;;25.70;28.50;;;;;;5122901;27;20582;-53
2021/03/30 13:10:30;;;;;;;4.40;3.80;;;25.80;28.20;;;;;;5098575;27;20207;-54
2021/03/30 13:12:56;;;;;;;4.93;3.83;;;25.70;28.50;;;;;;5103648;27;20254;-52